Time;durP1;ratioP1;P1;durP2;ratioP2;P2;SDS_P1;SDS_P2;PMS_P1;PMS_P2;Temp;Humidity;BMP_temperature;BMP_pressure;BME280_temperature;BME280_humidity;BME280_pressure;Samples;Min_cycle;Max_cycle;Signal;HPM_P1;HPM_P2
2022/06/14 00:03:14;;;;;;;8.00;5.93;;;15.30;99.90;;;;;;4972377;28;20522;-68
2022/06/14 00:05:40;;;;;;;5.00;4.57;;;15.30;99.90;;;;;;4970438;28;20451;-67
2022/06/14 00:08:06;;;;;;;8.83;5.37;;;15.30;99.90;;;;;;4971396;28;20614;-67
2022/06/14 00:10:32;;;;;;;14.13;5.60;;;15.20;99.90;;;;;;4973153;28;20490;-66
2022/06/14 00:12:58;;;;;;;6.70;5.80;;;15.20;99.90;;;;;;4972420;28;20239;-65
2022/06/14 00:15:24;;;;;;;6.20;5.57;;;15.20;99.90;;;;;;4973460;28;20471;-68
2022/06/14 00:17:50;;;;;;;5.43;5.00;;;15.20;99.90;;;;;;4971396;28;20267;-68
2022/06/14 00:20:15;;;;;;;7.20;5.30;;;15.20;99.90;;;;;;4971219;28;20431;-67
2022/06/14 00:22:41;;;;;;;5.93;5.40;;;15.20;99.90;;;;;;4970317;28;20262;-65
2022/06/14 00:25:07;;;;;;;5.40;4.90;;;15.20;99.90;;;;;;4971219;28;20180;-68
2022/06/14 00:27:33;;;;;;;9.10;8.00;;;15.00;99.90;;;;;;4970964;28;20180;-67
2022/06/14 00:29:58;;;;;;;6.27;5.70;;;15.00;99.90;;;;;;4971671;28;20506;-67
2022/06/14 00:32:24;;;;;;;6.47;5.57;;;15.00;99.90;;;;;;4971091;28;20224;-67
2022/06/14 00:34:50;;;;;;;8.90;6.90;;;14.90;99.90;;;;;;4970687;28;20235;-66
2022/06/14 00:37:20;;;;;;;5.53;5.00;;;14.80;99.90;;;;;;4979094;28;20180;-67
2022/06/14 00:39:46;;;;;;;8.43;5.83;;;14.70;99.90;;;;;;4970432;28;20208;-68
2022/06/14 00:42:21;;;;;;;12.70;6.63;;;14.60;99.90;;;;;;4970415;28;20914;-67
2022/06/14 00:45:29;;;;;;;8.03;5.77;;;14.50;99.90;;;;;;4972324;28;20235;-67
2022/06/14 00:48:13;;;;;;;5.37;4.93;;;14.60;99.90;;;;;;4970949;28;20530;-68
2022/06/14 00:50:55;;;;;;;8.20;6.10;;;14.70;99.90;;;;;;4980704;28;20439;-67
2022/06/14 00:53:34;;;;;;;6.23;4.80;;;14.60;99.90;;;;;;4972004;28;20475;-68
2022/06/14 00:56:05;;;;;;;6.50;5.43;;;14.70;99.90;;;;;;4969990;28;20462;-67
2022/06/14 00:58:43;;;;;;;7.27;5.87;;;14.60;99.90;;;;;;4972284;28;20470;-68
2022/06/14 01:01:20;;;;;;;6.40;5.70;;;14.70;99.90;;;;;;4966247;28;20470;-67
2022/06/14 01:03:51;;;;;;;7.80;5.57;;;14.60;99.90;;;;;;4967473;28;20506;-67
2022/06/14 01:06:36;;;;;;;8.13;5.60;;;14.50;99.90;;;;;;4970516;28;20465;-67
2022/06/14 01:09:08;;;;;;;7.20;5.50;;;14.50;99.90;;;;;;4968208;28;20804;-68
2022/06/14 01:11:45;;;;;;;6.63;5.57;;;14.50;99.90;;;;;;4982077;28;20457;-68
2022/06/14 01:14:15;;;;;;;7.03;5.93;;;14.50;99.90;;;;;;4973638;28;20942;-67
2022/06/14 01:16:41;;;;;;;6.40;5.80;;;14.50;99.90;;;;;;4982568;28;20462;-67
2022/06/14 01:19:14;;;;;;;9.03;5.60;;;14.40;99.90;;;;;;4979810;28;20450;-67
2022/06/14 01:21:40;;;;;;;7.30;6.30;;;14.30;99.90;;;;;;4976700;28;20207;-67
2022/06/14 01:24:05;;;;;;;7.20;6.43;;;14.20;99.90;;;;;;4975241;28;20526;-67
2022/06/14 01:26:33;;;;;;;10.80;5.70;;;14.10;99.90;;;;;;4971718;28;20914;-67
2022/06/14 01:29:04;;;;;;;7.67;6.60;;;14.00;99.90;;;;;;4972384;28;20184;-67
2022/06/14 01:31:31;;;;;;;6.40;5.80;;;14.10;99.90;;;;;;4968501;28;20534;-67
2022/06/14 01:34:03;;;;;;;7.43;6.40;;;14.00;99.90;;;;;;4962276;28;20460;-67
2022/06/14 01:36:35;;;;;;;10.70;5.83;;;14.10;99.90;;;;;;4970356;28;20446;-66
2022/06/14 01:39:04;;;;;;;8.93;5.20;;;14.10;99.90;;;;;;4967617;28;20584;-68
2022/06/14 01:42:05;;;;;;;6.73;5.97;;;14.10;99.90;;;;;;4966783;28;20459;-67
2022/06/14 01:44:34;;;;;;;7.20;5.67;;;14.10;99.90;;;;;;4958820;28;20495;-67
2022/06/14 01:47:15;;;;;;;6.03;5.33;;;14.00;99.90;;;;;;4969354;28;20451;-67
2022/06/14 01:53:04;;;;;;;7.07;6.23;;;14.00;99.90;;;;;;4969691;28;20466;-66
2022/06/14 01:55:41;;;;;;;6.70;6.07;;;14.00;99.90;;;;;;4969054;28;20451;-68
2022/06/14 01:58:22;;;;;;;7.40;5.83;;;14.00;99.90;;;;;;4969855;28;20498;-66
2022/06/14 02:00:53;;;;;;;6.80;5.33;;;14.00;99.90;;;;;;4969334;28;20439;-67
2022/06/14 02:06:38;;;;;;;8.90;6.20;;;14.00;99.90;;;;;;4970276;28;20873;-67
2022/06/14 02:09:24;;;;;;;6.90;5.60;;;13.90;99.90;;;;;;4962724;28;20467;-67
2022/06/14 02:11:50;;;;;;;6.13;5.53;;;13.90;99.90;;;;;;4971921;28;20435;-67
2022/06/14 02:14:24;;;;;;;6.83;5.70;;;13.80;99.90;;;;;;4970606;28;20460;-67
2022/06/14 02:16:54;;;;;;;7.30;5.80;;;13.80;99.90;;;;;;4970146;28;20646;-67
2022/06/14 02:19:38;;;;;;;6.27;5.67;;;13.70;99.90;;;;;;4965763;28;20446;-67
2022/06/14 02:22:21;;;;;;;7.70;6.60;;;13.70;99.90;;;;;;4968020;28;20570;-67
2022/06/14 02:24:51;;;;;;;8.30;6.87;;;13.70;99.90;;;;;;4972631;28;20763;-67
2022/06/14 02:27:31;;;;;;;7.70;5.67;;;13.60;99.90;;;;;;4970256;28;20454;-67
2022/06/14 02:30:03;;;;;;;10.30;6.67;;;13.70;99.90;;;;;;4968671;28;20439;-67
2022/06/14 02:32:39;;;;;;;7.03;5.80;;;13.70;99.90;;;;;;4971104;28;20447;-66
2022/06/14 02:35:14;;;;;;;8.03;7.33;;;13.70;99.90;;;;;;4969828;28;20462;-67
2022/06/14 02:38:01;;;;;;;6.43;5.80;;;13.60;99.90;;;;;;4969523;28;20803;-67
2022/06/14 02:40:58;;;;;;;6.87;6.00;;;13.50;99.90;;;;;;4969926;28;20952;-67
2022/06/14 02:43:41;;;;;;;6.13;5.17;;;13.30;99.90;;;;;;4966169;28;20447;-68
2022/06/14 02:46:19;;;;;;;6.50;5.90;;;13.20;99.90;;;;;;4969138;28;20463;-67
2022/06/14 02:49:04;;;;;;;6.57;5.97;;;13.20;99.90;;;;;;4970338;28;20519;-66
2022/06/14 02:51:37;;;;;;;7.83;6.60;;;13.20;99.90;;;;;;4975478;28;20874;-66
2022/06/14 02:54:11;;;;;;;8.20;6.73;;;13.20;99.90;;;;;;4973532;28;21088;-67
2022/06/14 02:56:54;;;;;;;8.50;6.27;;;13.20;99.90;;;;;;4973232;28;20461;-67
2022/06/14 03:00:04;;;;;;;8.53;7.63;;;13.20;99.90;;;;;;4969739;28;20446;-67
2022/06/14 03:02:35;;;;;;;9.83;6.73;;;13.20;99.90;;;;;;4973331;28;20708;-64
2022/06/14 03:05:10;;;;;;;8.47;6.43;;;13.20;99.90;;;;;;4973052;28;20550;-67
2022/06/14 03:07:41;;;;;;;7.00;6.30;;;13.10;99.90;;;;;;4975980;28;20780;-67
2022/06/14 03:10:08;;;;;;;6.73;6.17;;;13.10;99.90;;;;;;4971328;28;20442;-67
2022/06/14 03:12:44;;;;;;;9.87;7.40;;;13.00;99.90;;;;;;4974251;28;20443;-67
2022/06/14 03:15:16;;;;;;;8.23;6.60;;;13.00;99.90;;;;;;4974404;28;21097;-66
2022/06/14 03:17:48;;;;;;;7.67;6.40;;;13.00;99.90;;;;;;4973650;28;20450;-66
2022/06/14 03:20:33;;;;;;;6.87;6.03;;;13.10;99.90;;;;;;4972366;28;20443;-67
2022/06/14 03:23:28;;;;;;;7.93;7.20;;;13.10;99.90;;;;;;4978170;28;20466;-67
2022/06/14 03:26:15;;;;;;;9.10;6.57;;;13.10;99.90;;;;;;4972294;28;20462;-66
2022/06/14 03:28:55;;;;;;;7.10;6.50;;;13.10;99.90;;;;;;4970052;28;20431;-66
2022/06/14 03:31:43;;;;;;;10.67;7.13;;;13.00;99.90;;;;;;4973520;28;20443;-66
2022/06/14 03:34:17;;;;;;;7.63;6.53;;;13.00;99.90;;;;;;4971434;28;20463;-66
2022/06/14 03:36:43;;;;;;;7.10;6.40;;;12.90;99.90;;;;;;4972264;28;20666;-67
2022/06/14 03:39:16;;;;;;;6.00;5.30;;;12.90;99.90;;;;;;4971244;28;20453;-67
2022/06/14 03:41:46;;;;;;;10.50;7.07;;;12.90;99.90;;;;;;4976569;28;20278;-67
2022/06/14 03:44:12;;;;;;;7.37;6.70;;;12.80;99.90;;;;;;4972545;28;20468;-67
2022/06/14 03:46:42;;;;;;;8.93;6.60;;;12.80;99.90;;;;;;4973101;28;20562;-65
2022/06/14 03:49:17;;;;;;;7.03;6.40;;;12.70;99.90;;;;;;4972442;28;20805;-66
2022/06/14 03:52:07;;;;;;;11.20;6.07;;;12.80;99.90;;;;;;4970142;28;20446;-66
2022/06/14 03:55:02;;;;;;;7.23;6.53;;;12.90;99.90;;;;;;4971282;28;20475;-66
2022/06/14 03:57:45;;;;;;;7.30;6.30;;;13.00;99.90;;;;;;4972642;28;20439;-66
2022/06/14 04:00:25;;;;;;;9.33;7.20;;;13.10;99.90;;;;;;4970810;28;20555;-65
2022/06/14 04:03:27;;;;;;;7.13;5.97;;;13.20;99.90;;;;;;4972285;28;20479;-66
2022/06/14 04:06:17;;;;;;;10.10;7.47;;;13.30;99.90;;;;;;4971266;28;20439;-66
2022/06/14 04:09:03;;;;;;;6.77;6.10;;;13.30;99.90;;;;;;4971308;28;20434;-66
2022/06/14 04:11:50;;;;;;;10.63;6.90;;;13.50;99.90;;;;;;4972483;28;21008;-66
2022/06/14 04:14:34;;;;;;;9.30;6.80;;;13.50;99.90;;;;;;4970310;28;20971;-66
2022/06/14 04:17:10;;;;;;;7.90;6.63;;;13.60;99.90;;;;;;4972285;28;20887;-66
2022/06/14 04:20:08;;;;;;;7.50;6.80;;;13.70;99.90;;;;;;4972211;28;20511;-65
2022/06/14 04:23:13;;;;;;;7.20;6.50;;;13.90;99.90;;;;;;4969179;28;20479;-66
2022/06/14 04:25:53;;;;;;;7.27;6.57;;;14.00;99.90;;;;;;4970909;28;20848;-68
2022/06/14 04:28:28;;;;;;;8.90;6.97;;;14.20;99.90;;;;;;4965353;28;20480;-66
2022/06/14 04:31:37;;;;;;;9.80;8.53;;;14.20;99.90;;;;;;4971818;28;20527;-66
2022/06/14 04:34:03;;;;;;;7.87;7.13;;;14.30;99.90;;;;;;4970106;28;20470;-66
2022/06/14 04:36:37;;;;;;;8.97;7.70;;;14.40;99.90;;;;;;4972081;28;20523;-67
2022/06/14 04:39:15;;;;;;;12.67;6.80;;;14.50;99.90;;;;;;4972903;28;20184;-66
2022/06/14 04:41:55;;;;;;;8.63;5.90;;;14.60;99.90;;;;;;4972641;28;20451;-67
2022/06/14 04:44:24;;;;;;;7.27;6.50;;;14.60;99.90;;;;;;4967724;28;20455;-65
2022/06/14 04:47:02;;;;;;;8.20;6.90;;;14.70;99.90;;;;;;4971266;28;21624;-66
2022/06/14 04:49:45;;;;;;;9.60;6.37;;;14.80;99.90;;;;;;4972469;28;20443;-66
2022/06/14 04:52:17;;;;;;;11.60;7.83;;;15.00;99.90;;;;;;4970952;28;20961;-66
2022/06/14 04:54:50;;;;;;;7.60;7.00;;;15.30;99.90;;;;;;4970837;28;20482;-66
2022/06/14 04:57:34;;;;;;;8.20;6.53;;;15.40;99.90;;;;;;4972527;28;20543;-66
2022/06/14 05:00:08;;;;;;;7.07;6.20;;;15.60;99.90;;;;;;4968248;28;20790;-67
2022/06/14 05:02:46;;;;;;;7.43;6.40;;;15.80;99.90;;;;;;4967584;28;20972;-66
2022/06/14 05:05:16;;;;;;;8.30;6.53;;;16.00;99.90;;;;;;4948418;28;20459;-67
2022/06/14 05:08:35;;;;;;;7.93;7.10;;;16.10;99.90;;;;;;4943470;28;20948;-66
2022/06/14 05:11:34;;;;;;;6.33;5.73;;;16.10;99.90;;;;;;4922753;29;20485;-66
2022/06/14 05:14:08;;;;;;;7.43;6.77;;;16.30;99.90;;;;;;4920723;29;20461;-66
2022/06/14 05:16:56;;;;;;;7.50;5.73;;;16.50;99.90;;;;;;4967705;28;20969;-65
2022/06/14 05:19:42;;;;;;;9.33;7.07;;;16.80;99.90;;;;;;4979422;28;20530;-67
2022/06/14 05:22:11;;;;;;;10.63;6.77;;;16.90;99.90;;;;;;4973632;28;20498;-65
2022/06/14 05:24:38;;;;;;;7.40;6.50;;;17.10;99.90;;;;;;4970995;28;20475;-67
2022/06/14 05:27:34;;;;;;;10.77;7.30;;;17.40;99.90;;;;;;4977610;28;20446;-68
2022/06/14 05:30:06;;;;;;;7.10;6.40;;;17.50;99.90;;;;;;4979016;28;20951;-69
2022/06/14 05:32:44;;;;;;;10.60;6.60;;;17.60;99.90;;;;;;4982233;28;20477;-69
2022/06/14 05:35:27;;;;;;;11.30;7.43;;;17.80;99.90;;;;;;4969501;28;20443;-68
2022/06/14 05:38:02;;;;;;;6.87;6.27;;;17.80;99.90;;;;;;4981107;28;20447;-68
2022/06/14 05:40:41;;;;;;;7.83;6.07;;;17.80;99.90;;;;;;4973643;28;20772;-68
2022/06/14 05:43:20;;;;;;;6.93;5.97;;;17.90;99.90;;;;;;4969113;28;20470;-68
2022/06/14 05:45:54;;;;;;;7.90;6.40;;;18.00;99.90;;;;;;4968056;28;20444;-67
2022/06/14 05:48:28;;;;;;;7.77;7.17;;;17.90;99.90;;;;;;4971849;28;20449;-69
2022/06/14 05:50:56;;;;;;;7.90;7.10;;;17.90;99.90;;;;;;4971298;28;20515;-67
2022/06/14 05:53:29;;;;;;;8.93;6.93;;;18.00;99.90;;;;;;4970704;28;20840;-67
2022/06/14 05:56:36;;;;;;;6.33;5.73;;;18.20;99.90;;;;;;4963767;28;20809;-68
2022/06/14 05:59:14;;;;;;;9.90;8.00;;;18.50;99.90;;;;;;4964629;28;20471;-68
2022/06/14 06:01:42;;;;;;;8.30;6.63;;;18.80;99.90;;;;;;4973019;28;20471;-69
2022/06/14 06:04:11;;;;;;;7.50;6.67;;;18.90;99.90;;;;;;4968568;28;20491;-68
2022/06/14 06:06:44;;;;;;;10.47;6.77;;;19.10;99.90;;;;;;4967279;28;20446;-68
2022/06/14 06:09:15;;;;;;;8.67;7.77;;;19.30;99.90;;;;;;4970523;28;20864;-68
2022/06/14 06:11:50;;;;;;;7.40;6.70;;;19.40;99.90;;;;;;4974917;28;20500;-67
2022/06/14 06:14:30;;;;;;;6.60;5.90;;;19.40;99.90;;;;;;4970127;28;20958;-67
2022/06/14 06:17:12;;;;;;;8.07;5.90;;;19.50;99.90;;;;;;4970337;28;20445;-66
2022/06/14 06:19:56;;;;;;;10.80;7.13;;;19.60;99.90;;;;;;4970290;28;20443;-67
2022/06/14 06:22:45;;;;;;;7.87;7.17;;;19.70;99.90;;;;;;4965543;28;20476;-67
2022/06/14 06:25:24;;;;;;;9.97;7.13;;;19.70;99.90;;;;;;4960788;28;20531;-68
2022/06/14 06:28:04;;;;;;;9.20;7.97;;;19.70;99.90;;;;;;4980454;28;20446;-68
2022/06/14 06:30:37;;;;;;;8.23;7.40;;;19.70;99.90;;;;;;4971326;28;20807;-67
2022/06/14 06:33:02;;;;;;;8.20;7.47;;;20.00;99.90;;;;;;4968631;28;20473;-66
2022/06/14 06:35:59;;;;;;;8.20;7.03;;;20.20;99.90;;;;;;4964585;28;20443;-66
2022/06/14 06:38:44;;;;;;;7.40;6.43;;;20.10;99.90;;;;;;4966558;28;20263;-66
2022/06/14 06:44:07;;;;;;;7.00;6.30;;;20.80;99.90;;;;;;4972926;28;20502;-66
2022/06/14 06:46:40;;;;;;;9.27;7.00;;;20.60;99.90;;;;;;4967220;28;20439;-68
2022/06/14 06:49:09;;;;;;;7.13;6.30;;;20.80;99.90;;;;;;4970513;28;20500;-66
2022/06/14 06:51:43;;;;;;;10.80;6.30;;;20.90;99.90;;;;;;4972489;28;20790;-66
2022/06/14 06:54:22;;;;;;;9.07;6.90;;;21.10;99.90;;;;;;4971607;28;20477;-66
2022/06/14 06:56:52;;;;;;;8.37;6.23;;;21.30;99.90;;;;;;4969230;28;20526;-66
2022/06/14 06:59:29;;;;;;;9.67;8.67;;;21.50;99.90;;;;;;4972145;28;20419;-66
2022/06/14 07:01:59;;;;;;;6.90;6.30;;;21.80;99.90;;;;;;4967072;28;20476;-66
2022/06/14 07:07:23;;;;;;;8.93;6.70;;;21.90;99.90;;;;;;4956812;28;20985;-66
2022/06/14 07:09:55;;;;;;;6.80;6.20;;;21.80;99.70;;;;;;4964936;28;20637;-66
2022/06/14 07:12:31;;;;;;;8.83;6.43;;;21.70;99.90;;;;;;4964408;28;20534;-66
2022/06/14 07:15:05;;;;;;;10.10;6.47;;;21.90;99.60;;;;;;4962691;28;20541;-65
2022/06/14 07:17:53;;;;;;;6.83;5.63;;;21.70;99.50;;;;;;4972163;28;20471;-66
2022/06/14 07:20:19;;;;;;;12.10;6.47;;;22.20;98.90;;;;;;4964376;28;20585;-66
2022/06/14 07:22:52;;;;;;;7.50;6.80;;;22.60;98.40;;;;;;4971331;28;20562;-66
2022/06/14 07:25:30;;;;;;;9.70;6.80;;;23.00;97.50;;;;;;4964030;28;20184;-66
2022/06/14 07:28:07;;;;;;;7.73;6.67;;;23.20;95.90;;;;;;4971483;28;20441;-66
2022/06/14 07:31:00;;;;;;;7.20;5.87;;;22.80;96.00;;;;;;4969467;28;20586;-65
2022/06/14 07:33:28;;;;;;;8.83;6.70;;;22.90;94.60;;;;;;4969316;28;20463;-66
2022/06/14 07:36:00;;;;;;;6.50;5.87;;;22.70;94.50;;;;;;4966639;28;20443;-66
2022/06/14 07:38:44;;;;;;;8.43;5.70;;;22.80;94.30;;;;;;4973089;28;20804;-66
2022/06/14 07:41:37;;;;;;;13.97;12.53;;;22.80;94.40;;;;;;4972302;28;20435;-65
2022/06/14 07:44:12;;;;;;;8.03;5.60;;;23.20;92.30;;;;;;4972807;28;20459;-66
2022/06/14 07:46:55;;;;;;;7.80;5.77;;;23.60;91.80;;;;;;4966993;28;20826;-66
2022/06/14 07:49:30;;;;;;;11.10;6.40;;;23.70;92.20;;;;;;4972088;28;20526;-66
2022/06/14 07:52:13;;;;;;;6.60;5.53;;;24.00;90.40;;;;;;4964884;28;20580;-65
2022/06/14 07:54:46;;;;;;;7.03;5.07;;;24.00;87.20;;;;;;4969511;28;20470;-65
2022/06/14 07:57:16;;;;;;;7.70;5.97;;;24.10;86.90;;;;;;4971430;28;20447;-65
2022/06/14 07:59:52;;;;;;;6.10;5.10;;;24.10;85.90;;;;;;4972644;28;20517;-66
2022/06/14 08:02:26;;;;;;;7.50;5.13;;;24.30;83.10;;;;;;4972068;28;20545;-65
2022/06/14 08:04:55;;;;;;;5.93;5.40;;;24.20;82.70;;;;;;4967697;28;20467;-65
2022/06/14 08:07:22;;;;;;;9.67;4.90;;;24.00;83.90;;;;;;4973308;28;20440;-65
2022/06/14 08:10:07;;;;;;;8.60;5.20;;;24.10;84.70;;;;;;4972942;28;20443;-65
2022/06/14 08:12:38;;;;;;;8.00;4.80;;;24.20;83.40;;;;;;4972030;28;21023;-66
2022/06/14 08:15:10;;;;;;;5.20;4.80;;;23.90;84.60;;;;;;4965515;28;20534;-66
2022/06/14 08:17:54;;;;;;;6.20;5.27;;;24.00;83.60;;;;;;4971273;28;20462;-66
2022/06/14 08:20:44;;;;;;;5.60;4.90;;;24.10;82.10;;;;;;4974040;28;20498;-66
2022/06/14 08:23:25;;;;;;;8.47;4.90;;;24.10;82.60;;;;;;4972071;28;20479;-65
2022/06/14 08:26:03;;;;;;;6.77;5.07;;;24.50;81.10;;;;;;4964322;28;20447;-66
2022/06/14 08:28:46;;;;;;;6.97;4.67;;;24.40;80.20;;;;;;4967706;28;20509;-65
2022/06/14 08:31:33;;;;;;;7.73;5.07;;;24.40;80.20;;;;;;4970953;28;20474;-65
2022/06/14 08:34:03;;;;;;;5.37;4.87;;;24.70;79.80;;;;;;4971149;28;20533;-66
2022/06/14 08:36:54;;;;;;;6.00;4.97;;;24.70;79.50;;;;;;4964790;28;20443;-66
2022/06/14 08:39:45;;;;;;;6.50;5.77;;;24.90;79.40;;;;;;4967278;28;20449;-66
2022/06/14 08:42:28;;;;;;;6.20;5.30;;;25.20;78.40;;;;;;4972717;28;20503;-66
2022/06/14 08:45:06;;;;;;;7.20;5.27;;;25.40;76.10;;;;;;4965953;28;21141;-66
2022/06/14 08:47:37;;;;;;;5.27;4.77;;;25.90;76.40;;;;;;4973058;28;20439;-66
2022/06/14 08:50:26;;;;;;;7.23;5.50;;;26.30;74.80;;;;;;4970476;28;20531;-65
2022/06/14 08:53:09;;;;;;;6.57;5.00;;;26.40;73.00;;;;;;4928975;28;21064;-66
2022/06/14 08:55:49;;;;;;;5.93;5.30;;;26.20;73.10;;;;;;4964826;28;20443;-64
2022/06/14 08:58:41;;;;;;;6.70;5.10;;;25.50;73.00;;;;;;4970402;28;20458;-67
2022/06/14 09:01:44;;;;;;;5.27;4.77;;;25.60;72.70;;;;;;4966824;28;20456;-67
2022/06/14 09:04:37;;;;;;;5.93;4.10;;;25.90;71.50;;;;;;4970057;28;20516;-66
2022/06/14 09:07:29;;;;;;;6.43;5.57;;;26.20;71.60;;;;;;4968374;28;20518;-66
2022/06/14 09:10:33;;;;;;;7.37;4.57;;;26.60;68.90;;;;;;4967910;28;20927;-66
2022/06/14 09:13:12;;;;;;;6.87;4.23;;;26.60;68.80;;;;;;4971830;28;21035;-66
2022/06/14 09:16:02;;;;;;;5.70;4.47;;;26.60;68.00;;;;;;4965138;28;20455;-66
2022/06/14 09:18:47;;;;;;;6.87;4.33;;;26.80;66.70;;;;;;4965403;28;20542;-66
2022/06/14 09:21:52;;;;;;;5.20;4.70;;;27.20;65.50;;;;;;4969738;28;20439;-66
2022/06/14 09:24:45;;;;;;;7.17;4.67;;;26.90;66.20;;;;;;4972035;28;20522;-64
2022/06/14 09:27:37;;;;;;;6.37;4.73;;;27.10;64.50;;;;;;4971274;28;20515;-64
2022/06/14 09:30:44;;;;;;;4.63;4.13;;;27.50;61.80;;;;;;4971783;28;20782;-64
2022/06/14 09:33:42;;;;;;;4.43;4.03;;;27.70;62.00;;;;;;4957569;28;20498;-64
2022/06/14 09:36:32;;;;;;;5.67;4.40;;;27.30;61.50;;;;;;4959578;28;20447;-64
2022/06/14 09:39:20;;;;;;;7.63;4.43;;;26.80;61.00;;;;;;4965224;28;20440;-64
2022/06/14 09:42:13;;;;;;;10.10;3.73;;;27.10;59.60;;;;;;4970950;28;20467;-65
2022/06/14 09:45:19;;;;;;;5.77;4.03;;;27.50;59.70;;;;;;4961930;28;20489;-65
2022/06/14 09:48:03;;;;;;;4.17;3.73;;;27.80;58.20;;;;;;4969526;28;20521;-65
2022/06/14 09:50:56;;;;;;;7.10;4.10;;;28.30;58.00;;;;;;4966656;28;20941;-65
2022/06/14 09:53:42;;;;;;;4.73;4.03;;;28.80;57.70;;;;;;4966838;28;20475;-64
2022/06/14 09:56:19;;;;;;;5.03;4.47;;;29.50;56.30;;;;;;4962188;28;20890;-64
2022/06/14 09:59:22;;;;;;;5.17;4.23;;;30.40;54.50;;;;;;4965564;28;20443;-64
2022/06/14 10:01:59;;;;;;;6.47;3.70;;;30.30;52.80;;;;;;4960848;28;20475;-64
2022/06/14 10:04:43;;;;;;;5.23;4.33;;;30.30;52.00;;;;;;4961769;28;20455;-65
2022/06/14 10:07:09;;;;;;;6.33;4.70;;;30.60;51.30;;;;;;4964978;28;20545;-64
2022/06/14 10:09:55;;;;;;;5.13;4.47;;;30.00;51.70;;;;;;4966573;28;20519;-64
2022/06/14 10:12:33;;;;;;;5.67;4.13;;;30.50;49.40;;;;;;4966150;28;20194;-65
2022/06/14 10:15:10;;;;;;;4.77;4.37;;;30.70;49.40;;;;;;4959144;28;21082;-65
2022/06/14 10:17:59;;;;;;;3.93;3.40;;;30.90;49.00;;;;;;4963618;28;20436;-64
2022/06/14 10:20:34;;;;;;;7.80;5.27;;;31.30;47.10;;;;;;4975996;28;20533;-65
2022/06/14 10:23:26;;;;;;;7.13;4.00;;;31.70;47.10;;;;;;4965220;28;20478;-64
2022/06/14 10:29:10;;;;;;;3.97;3.67;;;32.10;46.40;;;;;;4968275;28;20960;-64
2022/06/14 10:32:06;;;;;;;4.90;3.67;;;32.80;45.20;;;;;;4966821;28;20435;-65
2022/06/14 10:34:48;;;;;;;4.77;4.33;;;32.90;44.90;;;;;;4966015;28;20455;-65
2022/06/14 10:37:26;;;;;;;4.93;4.20;;;33.50;43.80;;;;;;4966918;28;20435;-64
2022/06/14 10:39:51;;;;;;;4.57;4.10;;;33.90;42.30;;;;;;4969330;28;20449;-64
2022/06/14 10:42:17;;;;;;;3.87;3.53;;;33.60;41.70;;;;;;4970678;28;20467;-63
2022/06/14 10:44:56;;;;;;;3.90;3.60;;;33.20;42.40;;;;;;4962555;28;20240;-65
2022/06/14 10:47:24;;;;;;;5.80;4.20;;;34.00;41.20;;;;;;4969829;28;20192;-64
2022/06/14 10:49:50;;;;;;;4.37;3.90;;;34.80;40.50;;;;;;4969642;28;20944;-64
2022/06/14 10:52:30;;;;;;;4.03;3.73;;;33.60;40.40;;;;;;4971291;28;20522;-64
2022/06/14 10:55:01;;;;;;;4.80;4.40;;;33.20;41.70;;;;;;4961550;28;20333;-65
2022/06/14 10:57:41;;;;;;;5.23;4.17;;;33.90;40.10;;;;;;4970135;28;20436;-64
2022/06/14 11:00:10;;;;;;;4.60;4.20;;;33.70;38.80;;;;;;4966693;28;20454;-63
2022/06/14 11:02:45;;;;;;;4.03;3.67;;;33.60;38.50;;;;;;4969427;28;20961;-64
2022/06/14 11:05:17;;;;;;;5.33;3.97;;;34.80;39.40;;;;;;4957730;28;20451;-64
2022/06/14 11:08:13;;;;;;;4.30;3.90;;;34.90;38.10;;;;;;4971330;28;20470;-64
2022/06/14 11:10:57;;;;;;;5.97;3.90;;;35.40;38.00;;;;;;4970816;28;20485;-65
2022/06/14 11:13:48;;;;;;;6.47;5.40;;;36.00;36.90;;;;;;4974409;28;20550;-64
2022/06/14 11:16:22;;;;;;;4.13;3.83;;;37.10;35.90;;;;;;4963469;28;20439;-64
2022/06/14 11:19:18;;;;;;;6.67;4.10;;;38.00;35.20;;;;;;4975112;28;20446;-63
2022/06/14 11:22:12;;;;;;;4.27;3.77;;;38.00;35.10;;;;;;4971480;28;20474;-64
2022/06/14 11:24:59;;;;;;;18.27;6.20;;;38.30;33.90;;;;;;4966992;28;20479;-64
2022/06/14 11:27:32;;;;;;;8.90;8.10;;;39.50;33.80;;;;;;4970887;28;20435;-64
2022/06/14 11:30:19;;;;;;;7.37;6.67;;;39.80;33.50;;;;;;4972409;28;20976;-64
2022/06/14 11:32:53;;;;;;;4.97;4.57;;;38.90;33.80;;;;;;4973418;28;20499;-64
2022/06/14 11:35:38;;;;;;;4.60;3.27;;;38.80;32.60;;;;;;4965774;28;20937;-64
2022/06/14 11:38:41;;;;;;;4.17;3.87;;;36.30;33.20;;;;;;4973732;28;20493;-65
2022/06/14 11:41:10;;;;;;;3.90;3.60;;;36.30;34.30;;;;;;4983186;28;20485;-66
2022/06/14 11:44:00;;;;;;;4.83;4.43;;;35.30;35.80;;;;;;4978760;28;20448;-64
2022/06/14 11:46:52;;;;;;;6.77;4.57;;;35.80;34.80;;;;;;4966392;28;20440;-64
2022/06/14 11:49:20;;;;;;;5.23;4.40;;;35.20;34.90;;;;;;4968959;28;20444;-65
2022/06/14 11:52:24;;;;;;;4.23;3.93;;;36.20;34.50;;;;;;4974276;28;20625;-64
2022/06/14 11:55:36;;;;;;;4.23;3.87;;;38.30;33.20;;;;;;4968381;28;20545;-65
2022/06/14 11:58:04;;;;;;;4.90;4.20;;;38.60;32.50;;;;;;4927780;28;20442;-64
2022/06/14 12:00:45;;;;;;;4.37;3.97;;;38.00;32.40;;;;;;4973763;28;20439;-65
2022/06/14 12:03:48;;;;;;;5.30;4.00;;;38.20;32.40;;;;;;4968308;28;20502;-64
2022/06/14 12:06:27;;;;;;;5.70;4.20;;;39.80;31.80;;;;;;4961412;28;20439;-64
2022/06/14 12:09:18;;;;;;;5.37;3.97;;;40.60;30.90;;;;;;4971349;28;20937;-64
2022/06/14 12:11:58;;;;;;;4.50;4.10;;;41.20;30.10;;;;;;4973393;28;20803;-64
2022/06/14 12:14:45;;;;;;;4.83;4.33;;;42.10;30.00;;;;;;4976522;28;20466;-64
2022/06/14 12:17:20;;;;;;;6.13;3.80;;;40.30;30.00;;;;;;4968662;28;20454;-65
2022/06/14 12:19:53;;;;;;;4.00;3.77;;;40.30;30.10;;;;;;4972227;28;20443;-64
2022/06/14 12:22:28;;;;;;;4.13;3.83;;;40.30;29.80;;;;;;4975588;28;20470;-64
2022/06/14 12:27:45;;;;;;;5.20;3.90;;;37.20;31.20;;;;;;4971933;28;20502;-64
2022/06/14 12:30:15;;;;;;;3.70;3.40;;;37.90;32.00;;;;;;4970541;28;20427;-64
2022/06/14 12:33:01;;;;;;;4.00;3.60;;;38.10;30.50;;;;;;4973971;28;20431;-65
2022/06/14 12:35:32;;;;;;;4.73;3.60;;;38.50;29.80;;;;;;4962853;28;20435;-65
2022/06/14 12:38:03;;;;;;;4.27;3.87;;;37.10;30.40;;;;;;4971614;28;20470;-64
2022/06/14 12:40:47;;;;;;;3.60;3.30;;;35.60;31.70;;;;;;4970694;28;20467;-64
2022/06/14 12:43:58;;;;;;;4.60;3.90;;;36.60;31.10;;;;;;4966562;28;20485;-64
2022/06/14 12:46:28;;;;;;;5.90;3.37;;;37.50;30.70;;;;;;4961272;28;20446;-64
2022/06/14 12:49:33;;;;;;;4.50;4.10;;;38.00;30.30;;;;;;4971416;28;20439;-65
2022/06/14 12:52:07;;;;;;;3.77;3.47;;;39.30;29.90;;;;;;4956552;28;20471;-64
2022/06/14 12:55:01;;;;;;;5.93;3.30;;;39.60;29.10;;;;;;4969083;28;20555;-65
2022/06/14 12:57:48;;;;;;;3.70;3.40;;;40.00;29.00;;;;;;4971038;28;20445;-64
2022/06/14 13:00:32;;;;;;;3.23;2.90;;;38.80;28.30;;;;;;4972426;28;20435;-64
2022/06/14 13:03:24;;;;;;;3.70;3.40;;;39.30;28.00;;;;;;4969095;28;21070;-64
2022/06/14 13:05:55;;;;;;;3.30;3.00;;;39.40;27.90;;;;;;4961256;28;20506;-65
2022/06/14 13:08:46;;;;;;;4.50;3.00;;;40.70;27.40;;;;;;4971359;28;20423;-64
2022/06/14 13:11:38;;;;;;;3.37;3.17;;;39.80;26.80;;;;;;4971873;28;20443;-64
2022/06/14 13:14:10;;;;;;;4.57;3.50;;;37.60;27.60;;;;;;4965635;28;20801;-64
2022/06/14 13:17:09;;;;;;;3.70;3.40;;;36.30;29.10;;;;;;4968894;28;20443;-64
2022/06/14 13:20:06;;;;;;;4.10;3.63;;;37.60;29.60;;;;;;4967028;28;20525;-65
2022/06/14 13:22:54;;;;;;;4.20;3.80;;;38.70;28.80;;;;;;4937673;28;20550;-64
2022/06/14 13:25:48;;;;;;;3.53;3.23;;;38.00;29.00;;;;;;4979983;28;20432;-65
2022/06/14 13:28:42;;;;;;;4.67;2.97;;;37.60;29.00;;;;;;4976409;28;20459;-64
2022/06/14 13:31:45;;;;;;;3.40;3.10;;;36.70;27.80;;;;;;4977004;28;20480;-63
2022/06/14 13:34:49;;;;;;;3.67;2.60;;;35.30;28.10;;;;;;4954102;28;20532;-65
2022/06/14 13:37:46;;;;;;;3.13;2.83;;;35.20;27.90;;;;;;4974369;28;20803;-65
2022/06/14 13:40:30;;;;;;;2.97;2.70;;;34.80;28.50;;;;;;4966175;28;20490;-64
2022/06/14 13:43:04;;;;;;;3.97;3.57;;;34.20;29.80;;;;;;4969437;28;20478;-64
2022/06/14 13:45:44;;;;;;;3.60;3.40;;;32.00;30.70;;;;;;4969535;28;20478;-64
2022/06/14 13:48:22;;;;;;;3.87;3.23;;;30.00;31.00;;;;;;4972615;28;20434;-64
2022/06/14 13:50:57;;;;;;;3.30;2.80;;;29.50;31.90;;;;;;4971652;28;20987;-65
2022/06/14 13:53:48;;;;;;;3.60;3.40;;;29.90;32.40;;;;;;4966949;28;20529;-65
2022/06/14 13:56:30;;;;;;;4.47;3.90;;;29.70;32.50;;;;;;4970215;28;20435;-64
2022/06/14 13:59:02;;;;;;;4.37;3.53;;;28.90;33.70;;;;;;4982151;28;20469;-64
2022/06/14 14:01:42;;;;;;;3.93;3.60;;;29.10;34.00;;;;;;4973790;28;20470;-64
2022/06/14 14:04:17;;;;;;;6.40;3.10;;;29.00;34.00;;;;;;4967961;28;20467;-63
2022/06/14 14:07:04;;;;;;;3.63;3.33;;;28.30;34.20;;;;;;4971137;28;20457;-66
2022/06/14 14:09:38;;;;;;;3.17;2.97;;;28.10;33.20;;;;;;4969206;28;20435;-66
2022/06/14 14:12:24;;;;;;;3.43;3.10;;;27.80;32.20;;;;;;4971511;28;20445;-66